sensor_id;sensor_type;location;lat;lon;timestamp;pressure;altitude;pressure_sealevel;temperature;humidity
10712;BME280;5407;51.234;6.804;2023-05-23T00:02:25;101211.31;;;24.35;nan
10712;BME280;5407;51.234;6.804;2023-05-23T00:04:53;101212.81;;;24.40;nan
10712;BME280;5407;51.234;6.804;2023-05-23T00:07:23;101212.41;;;24.41;nan
10712;BME280;5407;51.234;6.804;2023-05-23T00:09:50;101214.72;;;24.43;nan
10712;BME280;5407;51.234;6.804;2023-05-23T00:12:17;101211.19;;;24.42;nan
10712;BME280;5407;51.234;6.804;2023-05-23T00:14:44;101207.00;;;24.34;nan
10712;BME280;5407;51.234;6.804;2023-05-23T00:17:12;101202.25;;;24.35;nan
10712;BME280;5407;51.234;6.804;2023-05-23T00:19:40;101203.88;;;24.32;nan
10712;BME280;5407;51.234;6.804;2023-05-23T00:22:11;101206.09;;;24.41;nan
10712;BME280;5407;51.234;6.804;2023-05-23T00:24:40;101197.59;;;24.32;nan
10712;BME280;5407;51.234;6.804;2023-05-23T00:27:07;101209.38;;;24.32;nan
10712;BME280;5407;51.234;6.804;2023-05-23T00:29:33;101204.19;;;24.38;nan
10712;BME280;5407;51.234;6.804;2023-05-23T00:32:00;101206.41;;;24.23;nan
10712;BME280;5407;51.234;6.804;2023-05-23T00:34:27;101205.56;;;24.26;nan
10712;BME280;5407;51.234;6.804;2023-05-23T00:36:55;101211.78;;;24.30;nan
10712;BME280;5407;51.234;6.804;2023-05-23T00:39:22;101206.00;;;24.25;nan
10712;BME280;5407;51.234;6.804;2023-05-23T00:41:49;101213.72;;;24.10;nan
10712;BME280;5407;51.234;6.804;2023-05-23T00:44:17;101216.47;;;24.33;nan
10712;BME280;5407;51.234;6.804;2023-05-23T00:46:47;101230.75;;;24.28;nan
10712;BME280;5407;51.234;6.804;2023-05-23T00:49:15;101217.06;;;24.21;nan
10712;BME280;5407;51.234;6.804;2023-05-23T00:51:44;101230.94;;;24.18;nan
10712;BME280;5407;51.234;6.804;2023-05-23T00:54:14;101230.88;;;24.21;nan
10712;BME280;5407;51.234;6.804;2023-05-23T00:56:42;101230.09;;;24.21;nan
10712;BME280;5407;51.234;6.804;2023-05-23T00:59:09;101227.16;;;24.08;nan
10712;BME280;5407;51.234;6.804;2023-05-23T01:01:36;101242.50;;;24.09;nan
10712;BME280;5407;51.234;6.804;2023-05-23T01:04:03;101241.25;;;24.14;nan
10712;BME280;5407;51.234;6.804;2023-05-23T01:06:31;101242.25;;;24.00;nan
10712;BME280;5407;51.234;6.804;2023-05-23T01:08:58;101241.66;;;24.12;nan
10712;BME280;5407;51.234;6.804;2023-05-23T01:11:33;101239.25;;;24.14;nan
10712;BME280;5407;51.234;6.804;2023-05-23T01:14:06;101242.91;;;24.08;nan
10712;BME280;5407;51.234;6.804;2023-05-23T01:16:41;101226.19;;;24.18;nan
10712;BME280;5407;51.234;6.804;2023-05-23T01:19:31;101242.25;;;24.00;nan
10712;BME280;5407;51.234;6.804;2023-05-23T01:22:10;101230.03;;;24.24;nan
10712;BME280;5407;51.234;6.804;2023-05-23T01:24:45;101234.94;;;24.13;nan
10712;BME280;5407;51.234;6.804;2023-05-23T01:27:22;101234.34;;;24.02;nan
10712;BME280;5407;51.234;6.804;2023-05-23T01:29:56;101233.88;;;24.07;nan
10712;BME280;5407;51.234;6.804;2023-05-23T01:32:24;101242.19;;;24.04;nan
10712;BME280;5407;51.234;6.804;2023-05-23T01:34:52;101248.59;;;23.97;nan
10712;BME280;5407;51.234;6.804;2023-05-23T01:37:19;101246.97;;;24.00;nan
10712;BME280;5407;51.234;6.804;2023-05-23T01:39:46;101248.25;;;23.95;nan
10712;BME280;5407;51.234;6.804;2023-05-23T01:42:14;101249.44;;;23.94;nan
10712;BME280;5407;51.234;6.804;2023-05-23T01:44:41;101248.50;;;24.04;nan
10712;BME280;5407;51.234;6.804;2023-05-23T01:47:10;101249.53;;;23.87;nan
10712;BME280;5407;51.234;6.804;2023-05-23T01:49:39;101246.94;;;24.03;nan
10712;BME280;5407;51.234;6.804;2023-05-23T01:52:07;101245.97;;;23.90;nan
10712;BME280;5407;51.234;6.804;2023-05-23T01:54:36;101251.53;;;24.10;nan
10712;BME280;5407;51.234;6.804;2023-05-23T01:57:04;101250.09;;;24.02;nan
10712;BME280;5407;51.234;6.804;2023-05-23T01:59:31;101250.16;;;23.98;nan
10712;BME280;5407;51.234;6.804;2023-05-23T02:01:58;101250.78;;;24.09;nan
10712;BME280;5407;51.234;6.804;2023-05-23T02:04:28;101251.09;;;23.88;nan
10712;BME280;5407;51.234;6.804;2023-05-23T02:06:57;101250.88;;;24.02;nan
10712;BME280;5407;51.234;6.804;2023-05-23T02:09:24;101244.84;;;23.84;nan
10712;BME280;5407;51.234;6.804;2023-05-23T02:11:51;101255.47;;;23.86;nan
10712;BME280;5407;51.234;6.804;2023-05-23T02:14:18;101245.28;;;23.79;nan
10712;BME280;5407;51.234;6.804;2023-05-23T02:16:45;101254.88;;;23.98;nan
10712;BME280;5407;51.234;6.804;2023-05-23T02:19:11;101252.13;;;23.98;nan
10712;BME280;5407;51.234;6.804;2023-05-23T02:21:40;101251.38;;;23.97;nan
10712;BME280;5407;51.234;6.804;2023-05-23T02:24:07;101254.13;;;23.97;nan
10712;BME280;5407;51.234;6.804;2023-05-23T02:26:33;101256.41;;;24.02;nan
10712;BME280;5407;51.234;6.804;2023-05-23T02:29:01;101245.78;;;24.01;nan
10712;BME280;5407;51.234;6.804;2023-05-23T02:31:28;101254.28;;;23.87;nan
10712;BME280;5407;51.234;6.804;2023-05-23T02:33:55;101250.28;;;23.91;nan
10712;BME280;5407;51.234;6.804;2023-05-23T02:36:22;101258.78;;;24.00;nan
10712;BME280;5407;51.234;6.804;2023-05-23T02:38:50;101258.84;;;23.97;nan
10712;BME280;5407;51.234;6.804;2023-05-23T02:41:17;101260.63;;;23.84;nan
10712;BME280;5407;51.234;6.804;2023-05-23T02:43:45;101261.22;;;23.95;nan
10712;BME280;5407;51.234;6.804;2023-05-23T02:46:14;101266.22;;;24.03;nan
10712;BME280;5407;51.234;6.804;2023-05-23T02:48:41;101265.91;;;23.98;nan
10712;BME280;5407;51.234;6.804;2023-05-23T02:51:07;101261.06;;;24.05;nan
10712;BME280;5407;51.234;6.804;2023-05-23T02:53:34;101270.66;;;23.97;nan
10712;BME280;5407;51.234;6.804;2023-05-23T02:56:02;101265.03;;;23.78;nan
10712;BME280;5407;51.234;6.804;2023-05-23T02:58:30;101273.06;;;23.95;nan
10712;BME280;5407;51.234;6.804;2023-05-23T03:01:01;101276.38;;;23.83;nan
10712;BME280;5407;51.234;6.804;2023-05-23T03:03:27;101277.94;;;23.84;nan
10712;BME280;5407;51.234;6.804;2023-05-23T03:05:56;101266.97;;;23.77;nan
10712;BME280;5407;51.234;6.804;2023-05-23T03:08:23;101274.66;;;23.93;nan
10712;BME280;5407;51.234;6.804;2023-05-23T03:10:49;101269.56;;;23.91;nan
10712;BME280;5407;51.234;6.804;2023-05-23T03:13:18;101270.09;;;23.79;nan
10712;BME280;5407;51.234;6.804;2023-05-23T03:15:45;101274.81;;;23.82;nan
10712;BME280;5407;51.234;6.804;2023-05-23T03:18:12;101268.78;;;23.91;nan
10712;BME280;5407;51.234;6.804;2023-05-23T03:20:38;101272.25;;;23.95;nan
10712;BME280;5407;51.234;6.804;2023-05-23T03:23:05;101272.41;;;23.84;nan
10712;BME280;5407;51.234;6.804;2023-05-23T03:25:32;101285.31;;;23.91;nan
10712;BME280;5407;51.234;6.804;2023-05-23T03:27:59;101273.88;;;23.92;nan
10712;BME280;5407;51.234;6.804;2023-05-23T03:30:27;101277.06;;;23.91;nan
10712;BME280;5407;51.234;6.804;2023-05-23T03:32:54;101280.25;;;23.89;nan
10712;BME280;5407;51.234;6.804;2023-05-23T03:35:21;101271.56;;;23.87;nan
10712;BME280;5407;51.234;6.804;2023-05-23T03:37:48;101286.41;;;23.97;nan
10712;BME280;5407;51.234;6.804;2023-05-23T03:40:14;101281.50;;;23.81;nan
10712;BME280;5407;51.234;6.804;2023-05-23T03:42:41;101274.81;;;23.82;nan
10712;BME280;5407;51.234;6.804;2023-05-23T03:45:09;101286.22;;;23.55;nan
10712;BME280;5407;51.234;6.804;2023-05-23T03:47:38;101293.66;;;23.58;nan
10712;BME280;5407;51.234;6.804;2023-05-23T03:50:08;101290.38;;;23.36;nan
10712;BME280;5407;51.234;6.804;2023-05-23T03:52:35;101295.91;;;23.36;nan
10712;BME280;5407;51.234;6.804;2023-05-23T03:55:03;101296.03;;;23.56;nan
10712;BME280;5407;51.234;6.804;2023-05-23T03:57:30;101305.31;;;23.65;nan
10712;BME280;5407;51.234;6.804;2023-05-23T03:59:57;101299.75;;;23.72;nan
10712;BME280;5407;51.234;6.804;2023-05-23T04:02:24;101313.09;;;23.73;nan
10712;BME280;5407;51.234;6.804;2023-05-23T04:04:53;101314.84;;;23.61;nan
10712;BME280;5407;51.234;6.804;2023-05-23T04:07:22;101309.44;;;23.54;nan
10712;BME280;5407;51.234;6.804;2023-05-23T04:09:51;101318.38;;;23.61;nan
10712;BME280;5407;51.234;6.804;2023-05-23T04:12:18;101319.00;;;23.46;nan
10712;BME280;5407;51.234;6.804;2023-05-23T04:14:46;101322.84;;;23.52;nan
10712;BME280;5407;51.234;6.804;2023-05-23T04:17:14;101322.41;;;23.53;nan
10712;BME280;5407;51.234;6.804;2023-05-23T04:19:42;101322.28;;;23.64;nan
10712;BME280;5407;51.234;6.804;2023-05-23T04:22:10;101320.25;;;23.68;nan
10712;BME280;5407;51.234;6.804;2023-05-23T04:24:37;101321.66;;;23.53;nan
10712;BME280;5407;51.234;6.804;2023-05-23T04:27:04;101326.25;;;23.63;nan
10712;BME280;5407;51.234;6.804;2023-05-23T04:29:32;101326.38;;;23.52;nan
10712;BME280;5407;51.234;6.804;2023-05-23T04:32:00;101319.38;;;23.48;nan
10712;BME280;5407;51.234;6.804;2023-05-23T04:34:27;101321.03;;;23.38;nan
10712;BME280;5407;51.234;6.804;2023-05-23T04:36:56;101322.28;;;23.34;nan
10712;BME280;5407;51.234;6.804;2023-05-23T04:39:25;101326.50;;;23.42;nan
10712;BME280;5407;51.234;6.804;2023-05-23T04:42:14;101329.47;;;23.58;nan
10712;BME280;5407;51.234;6.804;2023-05-23T04:45:09;101332.75;;;23.46;nan
10712;BME280;5407;51.234;6.804;2023-05-23T04:47:54;101338.47;;;23.28;nan
10712;BME280;5407;51.234;6.804;2023-05-23T04:50:33;101328.19;;;23.32;nan
10712;BME280;5407;51.234;6.804;2023-05-23T04:53:01;101337.81;;;23.51;nan
10712;BME280;5407;51.234;6.804;2023-05-23T04:55:30;101334.47;;;23.33;nan
10712;BME280;5407;51.234;6.804;2023-05-23T04:57:57;101337.28;;;23.29;nan
10712;BME280;5407;51.234;6.804;2023-05-23T05:00:24;101345.09;;;23.34;nan
10712;BME280;5407;51.234;6.804;2023-05-23T05:02:52;101337.09;;;23.47;nan
10712;BME280;5407;51.234;6.804;2023-05-23T05:05:18;101346.78;;;23.25;nan
10712;BME280;5407;51.234;6.804;2023-05-23T05:07:45;101344.72;;;23.32;nan
10712;BME280;5407;51.234;6.804;2023-05-23T05:10:13;101346.00;;;23.54;nan
10712;BME280;5407;51.234;6.804;2023-05-23T05:12:43;101348.03;;;23.50;nan
10712;BME280;5407;51.234;6.804;2023-05-23T05:15:11;101351.00;;;23.33;nan
10712;BME280;5407;51.234;6.804;2023-05-23T05:17:39;101348.84;;;23.51;nan
10712;BME280;5407;51.234;6.804;2023-05-23T05:20:10;101351.25;;;23.45;nan
10712;BME280;5407;51.234;6.804;2023-05-23T05:22:38;101351.00;;;23.33;nan
10712;BME280;5407;51.234;6.804;2023-05-23T05:25:07;101352.81;;;23.46;nan
10712;BME280;5407;51.234;6.804;2023-05-23T05:27:35;101359.75;;;23.58;nan
10712;BME280;5407;51.234;6.804;2023-05-23T05:30:07;101353.44;;;23.27;nan
10712;BME280;5407;51.234;6.804;2023-05-23T05:32:54;101358.06;;;23.34;nan
10712;BME280;5407;51.234;6.804;2023-05-23T05:35:22;101363.50;;;23.41;nan
10712;BME280;5407;51.234;6.804;2023-05-23T05:37:49;101365.03;;;23.45;nan
10712;BME280;5407;51.234;6.804;2023-05-23T05:40:17;101375.53;;;23.54;nan
10712;BME280;5407;51.234;6.804;2023-05-23T05:42:44;101381.69;;;23.65;nan
10712;BME280;5407;51.234;6.804;2023-05-23T05:45:12;101380.25;;;23.53;nan
10712;BME280;5407;51.234;6.804;2023-05-23T05:47:41;101374.59;;;23.34;nan
10712;BME280;5407;51.234;6.804;2023-05-23T05:50:08;101383.31;;;23.29;nan
10712;BME280;5407;51.234;6.804;2023-05-23T05:52:36;101380.38;;;23.43;nan
10712;BME280;5407;51.234;6.804;2023-05-23T05:57:33;101384.72;;;23.44;nan
10712;BME280;5407;51.234;6.804;2023-05-23T06:00:04;101378.44;;;23.40;nan
10712;BME280;5407;51.234;6.804;2023-05-23T06:02:45;101385.53;;;23.41;nan
10712;BME280;5407;51.234;6.804;2023-05-23T06:05:16;101385.38;;;23.55;nan
10712;BME280;5407;51.234;6.804;2023-05-23T06:07:47;101394.03;;;23.53;nan
10712;BME280;5407;51.234;6.804;2023-05-23T06:10:14;101393.22;;;23.56;nan
10712;BME280;5407;51.234;6.804;2023-05-23T06:12:41;101392.59;;;23.42;nan
10712;BME280;5407;51.234;6.804;2023-05-23T06:15:10;101395.56;;;23.58;nan
10712;BME280;5407;51.234;6.804;2023-05-23T06:17:38;101399.72;;;23.39;nan
10712;BME280;5407;51.234;6.804;2023-05-23T06:20:07;101403.91;;;23.51;nan
10712;BME280;5407;51.234;6.804;2023-05-23T06:22:36;101392.44;;;23.56;nan
10712;BME280;5407;51.234;6.804;2023-05-23T06:25:04;101398.19;;;23.35;nan
10712;BME280;5407;51.234;6.804;2023-05-23T06:27:31;101391.09;;;23.34;nan
10712;BME280;5407;51.234;6.804;2023-05-23T06:29:58;101391.84;;;23.38;nan
10712;BME280;5407;51.234;6.804;2023-05-23T06:32:27;101402.63;;;23.25;nan
10712;BME280;5407;51.234;6.804;2023-05-23T06:34:54;101401.66;;;23.39;nan
10712;BME280;5407;51.234;6.804;2023-05-23T06:37:22;101406.16;;;23.26;nan
10712;BME280;5407;51.234;6.804;2023-05-23T06:39:49;101400.75;;;23.52;nan
10712;BME280;5407;51.234;6.804;2023-05-23T06:42:16;101404.28;;;23.53;nan
10712;BME280;5407;51.234;6.804;2023-05-23T06:45:04;101409.19;;;23.35;nan
10712;BME280;5407;51.234;6.804;2023-05-23T06:47:31;101405.25;;;23.36;nan
10712;BME280;5407;51.234;6.804;2023-05-23T06:49:58;101413.22;;;23.27;nan
10712;BME280;5407;51.234;6.804;2023-05-23T06:52:26;101421.03;;;23.32;nan
10712;BME280;5407;51.234;6.804;2023-05-23T06:54:53;101418.63;;;23.37;nan
10712;BME280;5407;51.234;6.804;2023-05-23T06:57:20;101422.47;;;23.47;nan
10712;BME280;5407;51.234;6.804;2023-05-23T06:59:48;101424.06;;;23.41;nan
10712;BME280;5407;51.234;6.804;2023-05-23T07:02:14;101429.19;;;23.42;nan
10712;BME280;5407;51.234;6.804;2023-05-23T07:04:42;101427.81;;;23.61;nan
10712;BME280;5407;51.234;6.804;2023-05-23T07:07:16;101432.78;;;23.36;nan
10712;BME280;5407;51.234;6.804;2023-05-23T07:09:44;101429.34;;;23.28;nan
10712;BME280;5407;51.234;6.804;2023-05-23T07:12:15;101429.38;;;23.58;nan
10712;BME280;5407;51.234;6.804;2023-05-23T07:14:45;101439.03;;;23.40;nan
10712;BME280;5407;51.234;6.804;2023-05-23T07:17:13;101438.75;;;23.64;nan
10712;BME280;5407;51.234;6.804;2023-05-23T07:19:40;101440.28;;;23.69;nan
10712;BME280;5407;51.234;6.804;2023-05-23T07:22:07;101443.59;;;23.57;nan
10712;BME280;5407;51.234;6.804;2023-05-23T07:24:36;101447.25;;;23.80;nan
10712;BME280;5407;51.234;6.804;2023-05-23T07:27:06;101443.38;;;23.74;nan
10712;BME280;5407;51.234;6.804;2023-05-23T07:29:35;101455.69;;;23.66;nan
10712;BME280;5407;51.234;6.804;2023-05-23T07:32:02;101447.56;;;23.52;nan
10712;BME280;5407;51.234;6.804;2023-05-23T07:34:29;101455.44;;;23.54;nan
10712;BME280;5407;51.234;6.804;2023-05-23T07:36:59;101455.38;;;23.57;nan
10712;BME280;5407;51.234;6.804;2023-05-23T07:39:31;101455.75;;;23.59;nan
10712;BME280;5407;51.234;6.804;2023-05-23T07:41:59;101457.81;;;23.52;nan
10712;BME280;5407;51.234;6.804;2023-05-23T07:44:28;101457.06;;;23.48;nan
10712;BME280;5407;51.234;6.804;2023-05-23T07:46:55;101461.50;;;23.35;nan
10712;BME280;5407;51.234;6.804;2023-05-23T07:49:23;101468.91;;;23.45;nan
10712;BME280;5407;51.234;6.804;2023-05-23T07:51:51;101459.47;;;23.42;nan
10712;BME280;5407;51.234;6.804;2023-05-23T07:54:18;101470.50;;;23.39;nan
10712;BME280;5407;51.234;6.804;2023-05-23T07:56:47;101463.53;;;23.31;nan
10712;BME280;5407;51.234;6.804;2023-05-23T07:59:14;101470.50;;;23.39;nan
10712;BME280;5407;51.234;6.804;2023-05-23T08:01:43;101474.44;;;23.41;nan
10712;BME280;5407;51.234;6.804;2023-05-23T08:04:16;101472.44;;;23.42;nan
10712;BME280;5407;51.234;6.804;2023-05-23T08:06:48;101472.09;;;23.40;nan
10712;BME280;5407;51.234;6.804;2023-05-23T08:09:15;101479.13;;;23.44;nan
10712;BME280;5407;51.234;6.804;2023-05-23T08:11:48;101491.72;;;23.42;nan
10712;BME280;5407;51.234;6.804;2023-05-23T08:14:16;101489.66;;;23.53;nan
10712;BME280;5407;51.234;6.804;2023-05-23T08:17:11;101503.44;;;23.53;nan
10712;BME280;5407;51.234;6.804;2023-05-23T08:19:40;101507.47;;;23.45;nan
10712;BME280;5407;51.234;6.804;2023-05-23T08:22:07;101512.63;;;23.39;nan
10712;BME280;5407;51.234;6.804;2023-05-23T08:24:33;101514.91;;;23.48;nan
10712;BME280;5407;51.234;6.804;2023-05-23T08:27:01;101519.97;;;23.53;nan
10712;BME280;5407;51.234;6.804;2023-05-23T08:29:29;101514.13;;;23.47;nan
10712;BME280;5407;51.234;6.804;2023-05-23T08:31:56;101516.97;;;23.37;nan
10712;BME280;5407;51.234;6.804;2023-05-23T08:34:25;101513.53;;;23.26;nan
10712;BME280;5407;51.234;6.804;2023-05-23T08:36:51;101525.44;;;23.12;nan
10712;BME280;5407;51.234;6.804;2023-05-23T08:39:20;101530.53;;;23.14;nan
10712;BME280;5407;51.234;6.804;2023-05-23T08:41:53;101531.72;;;23.13;nan
10712;BME280;5407;51.234;6.804;2023-05-23T08:44:21;101537.50;;;23.29;nan
10712;BME280;5407;51.234;6.804;2023-05-23T08:46:52;101528.97;;;23.09;nan
10712;BME280;5407;51.234;6.804;2023-05-23T08:49:47;101542.28;;;23.21;nan
10712;BME280;5407;51.234;6.804;2023-05-23T08:52:17;101542.13;;;23.39;nan
10712;BME280;5407;51.234;6.804;2023-05-23T08:54:49;101540.50;;;23.45;nan
10712;BME280;5407;51.234;6.804;2023-05-23T08:57:17;101552.22;;;23.56;nan
10712;BME280;5407;51.234;6.804;2023-05-23T08:59:50;101553.41;;;23.55;nan
10712;BME280;5407;51.234;6.804;2023-05-23T09:02:18;101556.94;;;23.55;nan
10712;BME280;5407;51.234;6.804;2023-05-23T09:04:48;101553.03;;;23.53;nan
10712;BME280;5407;51.234;6.804;2023-05-23T09:07:20;101559.28;;;23.57;nan
10712;BME280;5407;51.234;6.804;2023-05-23T09:09:49;101561.22;;;23.60;nan
10712;BME280;5407;51.234;6.804;2023-05-23T09:12:16;101558.50;;;23.56;nan
10712;BME280;5407;51.234;6.804;2023-05-23T09:14:47;101571.81;;;23.61;nan
10712;BME280;5407;51.234;6.804;2023-05-23T09:17:15;101575.97;;;23.36;nan
10712;BME280;5407;51.234;6.804;2023-05-23T09:19:44;101572.78;;;23.41;nan
10712;BME280;5407;51.234;6.804;2023-05-23T09:22:26;101574.47;;;23.31;nan
10712;BME280;5407;51.234;6.804;2023-05-23T09:25:06;101575.34;;;23.18;nan
10712;BME280;5407;51.234;6.804;2023-05-23T09:27:34;101579.81;;;23.49;nan
10712;BME280;5407;51.234;6.804;2023-05-23T09:30:05;101578.97;;;23.55;nan
10712;BME280;5407;51.234;6.804;2023-05-23T09:32:32;101585.38;;;23.42;nan
10712;BME280;5407;51.234;6.804;2023-05-23T09:35:00;101586.16;;;23.42;nan
10712;BME280;5407;51.234;6.804;2023-05-23T09:37:30;101591.59;;;23.49;nan
10712;BME280;5407;51.234;6.804;2023-05-23T09:39:59;101586.94;;;23.43;nan
10712;BME280;5407;51.234;6.804;2023-05-23T09:42:31;101590.19;;;23.31;nan
10712;BME280;5407;51.234;6.804;2023-05-23T09:44:59;101591.03;;;23.24;nan
10712;BME280;5407;51.234;6.804;2023-05-23T09:47:28;101595.81;;;23.17;nan
10712;BME280;5407;51.234;6.804;2023-05-23T09:49:55;101598.97;;;23.08;nan
10712;BME280;5407;51.234;6.804;2023-05-23T09:52:22;101597.03;;;23.05;nan
10712;BME280;5407;51.234;6.804;2023-05-23T09:54:50;101597.31;;;23.28;nan
10712;BME280;5407;51.234;6.804;2023-05-23T09:57:18;101602.59;;;23.53;nan
10712;BME280;5407;51.234;6.804;2023-05-23T09:59:52;101607.41;;;23.42;nan
10712;BME280;5407;51.234;6.804;2023-05-23T10:02:35;101614.22;;;23.27;nan
10712;BME280;5407;51.234;6.804;2023-05-23T10:05:20;101612.75;;;23.63;nan
10712;BME280;5407;51.234;6.804;2023-05-23T10:07:49;101608.66;;;23.77;nan
10712;BME280;5407;51.234;6.804;2023-05-23T10:10:18;101608.00;;;23.67;nan
10712;BME280;5407;51.234;6.804;2023-05-23T10:12:49;101612.13;;;23.45;nan
10712;BME280;5407;51.234;6.804;2023-05-23T10:15:17;101616.00;;;23.51;nan
10712;BME280;5407;51.234;6.804;2023-05-23T10:17:56;101615.44;;;23.19;nan
10712;BME280;5407;51.234;6.804;2023-05-23T10:20:30;101617.84;;;23.13;nan
10712;BME280;5407;51.234;6.804;2023-05-23T10:22:59;101609.22;;;23.04;nan
10712;BME280;5407;51.234;6.804;2023-05-23T10:25:27;101619.09;;;23.02;nan
10712;BME280;5407;51.234;6.804;2023-05-23T10:27:55;101621.38;;;23.14;nan
10712;BME280;5407;51.234;6.804;2023-05-23T10:30:24;101621.47;;;22.93;nan
10712;BME280;5407;51.234;6.804;2023-05-23T10:32:52;101630.84;;;23.06;nan
10712;BME280;5407;51.234;6.804;2023-05-23T10:35:23;101632.09;;;22.91;nan
10712;BME280;5407;51.234;6.804;2023-05-23T10:37:55;101624.72;;;22.74;nan
10712;BME280;5407;51.234;6.804;2023-05-23T10:40:30;101634.78;;;23.05;nan
10712;BME280;5407;51.234;6.804;2023-05-23T10:43:04;101628.09;;;23.06;nan
10712;BME280;5407;51.234;6.804;2023-05-23T10:45:39;101628.84;;;23.17;nan
10712;BME280;5407;51.234;6.804;2023-05-23T10:48:19;101629.50;;;23.35;nan
10712;BME280;5407;51.234;6.804;2023-05-23T10:51:00;101633.09;;;23.28;nan
10712;BME280;5407;51.234;6.804;2023-05-23T10:53:28;101631.91;;;23.29;nan
10712;BME280;5407;51.234;6.804;2023-05-23T10:55:56;101635.06;;;23.28;nan
10712;BME280;5407;51.234;6.804;2023-05-23T10:58:23;101639.41;;;23.25;nan
10712;BME280;5407;51.234;6.804;2023-05-23T11:00:51;101628.41;;;23.22;nan
10712;BME280;5407;51.234;6.804;2023-05-23T11:03:29;101628.09;;;23.13;nan
10712;BME280;5407;51.234;6.804;2023-05-23T11:05:58;101628.03;;;23.23;nan
10712;BME280;5407;51.234;6.804;2023-05-23T11:08:25;101635.56;;;23.09;nan
10712;BME280;5407;51.234;6.804;2023-05-23T11:10:53;101623.38;;;23.10;nan
10712;BME280;5407;51.234;6.804;2023-05-23T11:13:22;101630.47;;;23.11;nan
10712;BME280;5407;51.234;6.804;2023-05-23T11:15:49;101623.38;;;23.10;nan
10712;BME280;5407;51.234;6.804;2023-05-23T11:18:21;101632.47;;;23.00;nan
10712;BME280;5407;51.234;6.804;2023-05-23T11:20:51;101623.75;;;23.08;nan
10712;BME280;5407;51.234;6.804;2023-05-23T11:23:18;101622.53;;;23.16;nan
10712;BME280;5407;51.234;6.804;2023-05-23T11:25:48;101625.31;;;23.09;nan
10712;BME280;5407;51.234;6.804;2023-05-23T11:28:15;101626.16;;;23.03;nan
10712;BME280;5407;51.234;6.804;2023-05-23T11:30:47;101630.47;;;23.00;nan
10712;BME280;5407;51.234;6.804;2023-05-23T11:33:15;101632.78;;;23.12;nan
10712;BME280;5407;51.234;6.804;2023-05-23T11:35:44;101642.13;;;23.29;nan
10712;BME280;5407;51.234;6.804;2023-05-23T11:38:13;101648.38;;;23.33;nan
10712;BME280;5407;51.234;6.804;2023-05-23T11:40:42;101652.00;;;23.23;nan
10712;BME280;5407;51.234;6.804;2023-05-23T11:43:10;101646.16;;;23.14;nan
10712;BME280;5407;51.234;6.804;2023-05-23T11:45:37;101645.72;;;23.22;nan
10712;BME280;5407;51.234;6.804;2023-05-23T11:48:07;101638.72;;;23.11;nan
10712;BME280;5407;51.234;6.804;2023-05-23T11:50:42;101646.94;;;23.14;nan
10712;BME280;5407;51.234;6.804;2023-05-23T11:53:09;101648.50;;;23.19;nan
10712;BME280;5407;51.234;6.804;2023-05-23T11:55:38;101645.41;;;23.03;nan
10712;BME280;5407;51.234;6.804;2023-05-23T11:58:06;101653.50;;;23.31;nan
10712;BME280;5407;51.234;6.804;2023-05-23T12:00:33;101650.88;;;23.17;nan
10712;BME280;5407;51.234;6.804;2023-05-23T12:03:06;101652.88;;;23.02;nan
10712;BME280;5407;51.234;6.804;2023-05-23T12:05:33;101655.56;;;23.16;nan
10712;BME280;5407;51.234;6.804;2023-05-23T12:08:00;101658.75;;;23.08;nan
10712;BME280;5407;51.234;6.804;2023-05-23T12:10:27;101662.31;;;23.05;nan
10712;BME280;5407;51.234;6.804;2023-05-23T12:12:55;101663.53;;;22.97;nan
10712;BME280;5407;51.234;6.804;2023-05-23T12:15:24;101658.03;;;22.97;nan
10712;BME280;5407;51.234;6.804;2023-05-23T12:17:52;101656.47;;;22.89;nan
10712;BME280;5407;51.234;6.804;2023-05-23T12:20:21;101658.75;;;23.04;nan
10712;BME280;5407;51.234;6.804;2023-05-23T12:22:49;101655.47;;;23.34;nan
10712;BME280;5407;51.234;6.804;2023-05-23T12:25:19;101656.19;;;23.45;nan
10712;BME280;5407;51.234;6.804;2023-05-23T12:27:47;101663.28;;;23.46;nan
10712;BME280;5407;51.234;6.804;2023-05-23T12:30:15;101655.78;;;23.43;nan
10712;BME280;5407;51.234;6.804;2023-05-23T12:32:43;101650.81;;;23.27;nan
10712;BME280;5407;51.234;6.804;2023-05-23T12:35:12;101659.78;;;23.38;nan
10712;BME280;5407;51.234;6.804;2023-05-23T12:37:42;101658.22;;;23.34;nan
10712;BME280;5407;51.234;6.804;2023-05-23T12:40:12;101655.47;;;23.34;nan
10712;BME280;5407;51.234;6.804;2023-05-23T12:42:45;101659.84;;;23.28;nan
10712;BME280;5407;51.234;6.804;2023-05-23T12:45:13;101655.50;;;23.27;nan
10712;BME280;5407;51.234;6.804;2023-05-23T12:47:40;101651.94;;;23.33;nan
10712;BME280;5407;51.234;6.804;2023-05-23T12:50:08;101651.53;;;23.35;nan
10712;BME280;5407;51.234;6.804;2023-05-23T12:52:35;101655.41;;;23.41;nan
10712;BME280;5407;51.234;6.804;2023-05-23T12:55:05;101645.69;;;23.26;nan
10712;BME280;5407;51.234;6.804;2023-05-23T12:57:33;101653.03;;;23.43;nan
10712;BME280;5407;51.234;6.804;2023-05-23T13:00:00;101649.81;;;23.55;nan
10712;BME280;5407;51.234;6.804;2023-05-23T13:02:27;101656.38;;;23.68;nan
10712;BME280;5407;51.234;6.804;2023-05-23T13:04:54;101650.56;;;23.59;nan
10712;BME280;5407;51.234;6.804;2023-05-23T13:07:21;101650.06;;;23.71;nan
10712;BME280;5407;51.234;6.804;2023-05-23T13:09:48;101640.13;;;23.83;nan
10712;BME280;5407;51.234;6.804;2023-05-23T13:12:16;101646.00;;;23.89;nan
10712;BME280;5407;51.234;6.804;2023-05-23T13:14:43;101641.53;;;24.02;nan
10712;BME280;5407;51.234;6.804;2023-05-23T13:17:10;101641.88;;;24.07;nan
10712;BME280;5407;51.234;6.804;2023-05-23T13:19:38;101652.47;;;24.12;nan
10712;BME280;5407;51.234;6.804;2023-05-23T13:22:05;101644.56;;;24.14;nan
10712;BME280;5407;51.234;6.804;2023-05-23T13:24:35;101642.22;;;24.13;nan
10712;BME280;5407;51.234;6.804;2023-05-23T13:27:02;101642.19;;;24.16;nan
10712;BME280;5407;51.234;6.804;2023-05-23T13:29:31;101646.50;;;24.17;nan
10712;BME280;5407;51.234;6.804;2023-05-23T13:31:59;101647.69;;;24.16;nan
10712;BME280;5407;51.234;6.804;2023-05-23T13:34:26;101642.97;;;24.17;nan
10712;BME280;5407;51.234;6.804;2023-05-23T13:36:53;101661.94;;;24.08;nan